createdAt,value
2018-11-01T00:00:56.422Z,9.10
2018-11-01T00:03:25.596Z,9.10
2018-11-01T00:05:54.762Z,9.20
2018-11-01T00:08:24.030Z,9.10
2018-11-01T00:10:53.356Z,8.90
2018-11-01T00:13:22.587Z,8.70
2018-11-01T00:15:52.030Z,8.30
2018-11-01T00:18:21.178Z,8.30
2018-11-01T00:20:50.438Z,8.30
2018-11-01T00:23:19.708Z,8.20
2018-11-01T00:25:48.913Z,8.20
2018-11-01T00:28:18.121Z,8.20
2018-11-01T00:30:47.625Z,8.30
2018-11-01T00:33:17.825Z,8.30
2018-11-01T00:35:47.738Z,8.30
2018-11-01T00:38:17.750Z,8.40
2018-11-01T00:40:47.845Z,8.40
2018-11-01T00:43:17.895Z,8.80
2018-11-01T00:45:47.854Z,9.00
2018-11-01T00:48:18.097Z,8.90
2018-11-01T00:50:47.947Z,8.70
2018-11-01T00:53:17.959Z,8.60
2018-11-01T00:55:48.017Z,8.80
2018-11-01T00:58:18.195Z,9.10
2018-11-01T01:00:48.121Z,9.10
2018-11-01T01:03:18.146Z,9.00
2018-11-01T01:05:48.130Z,9.10
2018-11-01T01:08:18.226Z,9.00
2018-11-01T01:10:48.253Z,9.00
2018-11-01T01:13:18.397Z,9.20
2018-11-01T01:15:48.393Z,9.30
2018-11-01T01:18:18.304Z,9.10
2018-11-01T01:20:48.338Z,9.00
2018-11-01T01:23:18.483Z,8.90
2018-11-01T01:25:48.456Z,9.40
2018-11-01T01:28:18.478Z,9.60
2018-11-01T01:30:48.623Z,9.50
2018-11-01T01:33:20.342Z,9.30
2018-11-01T01:35:49.615Z,9.60
2018-11-01T01:38:18.920Z,9.60
2018-11-01T01:40:48.755Z,9.30
2018-11-01T01:43:18.809Z,9.00
2018-11-01T01:45:48.773Z,8.90
2018-11-01T01:48:18.720Z,8.80
2018-11-01T01:50:49.009Z,8.90
2018-11-01T01:53:18.808Z,8.70
2018-11-01T01:55:48.960Z,8.70
2018-11-01T01:58:18.956Z,8.80
2018-11-01T02:00:49.025Z,9.30
2018-11-01T02:03:19.013Z,9.50
2018-11-01T02:05:49.155Z,9.20
2018-11-01T02:08:19.218Z,9.00
2018-11-01T02:10:49.149Z,9.30
2018-11-01T02:13:19.225Z,9.40
2018-11-01T02:15:49.278Z,9.40
2018-11-01T02:18:19.391Z,9.30
2018-11-01T02:20:49.362Z,9.10
2018-11-01T02:23:19.490Z,9.10
2018-11-01T02:25:49.414Z,9.30
2018-11-01T02:28:19.805Z,9.40
2018-11-01T02:30:49.526Z,9.40
2018-11-01T02:33:19.606Z,9.40
2018-11-01T02:35:49.573Z,9.10
2018-11-01T02:38:19.723Z,9.00
2018-11-01T02:40:49.705Z,8.90
2018-11-01T02:43:19.696Z,9.10
2018-11-01T02:45:49.637Z,9.00
2018-11-01T02:48:19.861Z,9.20
2018-11-01T02:50:49.821Z,9.40
2018-11-01T02:53:19.811Z,9.40
2018-11-01T02:55:49.761Z,9.50
2018-11-01T02:58:19.895Z,9.60
2018-11-01T03:00:49.946Z,9.70
2018-11-01T03:03:20.058Z,9.40
2018-11-01T03:05:49.906Z,9.20
2018-11-01T03:08:21.474Z,9.10
2018-11-01T03:10:50.725Z,9.00
2018-11-01T03:13:20.178Z,8.90
2018-11-01T03:15:50.180Z,8.90
2018-11-01T03:18:20.110Z,8.80
2018-11-01T03:20:50.139Z,8.60
2018-11-01T03:23:20.365Z,8.50
2018-11-01T03:25:50.352Z,8.70
2018-11-01T03:28:20.329Z,8.80
2018-11-01T03:30:50.374Z,8.80
2018-11-01T03:33:20.450Z,8.60
2018-11-01T03:35:49.691Z,8.60
2018-11-01T03:38:18.993Z,8.60
2018-11-01T03:40:48.099Z,9.00
2018-11-01T03:43:17.370Z,8.80
2018-11-01T03:45:46.617Z,8.50
2018-11-01T03:48:15.762Z,8.40
2018-11-01T03:50:44.942Z,8.30
2018-11-01T03:53:14.194Z,8.30
2018-11-01T03:55:43.408Z,8.40
2018-11-01T03:58:12.590Z,8.30
2018-11-01T04:00:41.802Z,8.30
2018-11-01T04:03:10.995Z,8.20
2018-11-01T04:05:40.155Z,8.10
2018-11-01T04:08:09.380Z,8.00
2018-11-01T04:10:38.543Z,8.10
2018-11-01T04:13:08.735Z,8.10
2018-11-01T04:15:37.934Z,8.20
2018-11-01T04:18:07.119Z,8.20
2018-11-01T04:20:36.369Z,8.10
2018-11-01T04:23:05.844Z,8.10
2018-11-01T04:25:34.998Z,8.10
2018-11-01T04:28:04.063Z,8.10
2018-11-01T04:30:33.354Z,8.20
2018-11-01T04:33:02.624Z,8.10
2018-11-01T04:35:33.447Z,8.10
2018-11-01T04:38:02.643Z,8.10
2018-11-01T04:40:31.903Z,7.90
2018-11-01T04:43:01.028Z,7.90
2018-11-01T04:45:30.089Z,7.80
2018-11-01T04:47:59.336Z,7.80
2018-11-01T04:50:28.360Z,8.10
2018-11-01T04:52:57.533Z,8.00
2018-11-01T04:55:27.558Z,8.20
2018-11-01T04:57:56.788Z,8.30
2018-11-01T05:00:25.970Z,8.10
2018-11-01T05:02:55.216Z,8.10
2018-11-01T05:05:24.279Z,8.00
2018-11-01T05:07:53.494Z,8.10
2018-11-01T05:10:22.692Z,8.40
2018-11-01T05:12:51.919Z,8.50
2018-11-01T05:15:21.616Z,8.40
2018-11-01T05:17:51.614Z,8.30
2018-11-01T05:20:21.584Z,8.30
2018-11-01T05:22:51.541Z,8.20
2018-11-01T05:25:21.647Z,8.20
2018-11-01T05:27:51.637Z,8.30
2018-11-01T05:30:21.589Z,8.10
2018-11-01T05:32:51.690Z,8.00
2018-11-01T05:35:21.836Z,8.00
2018-11-01T05:37:51.862Z,8.40
2018-11-01T05:40:21.856Z,8.40
2018-11-01T05:42:51.846Z,8.40
2018-11-01T05:45:21.897Z,8.40
2018-11-01T05:47:51.831Z,8.40
2018-11-01T05:50:21.922Z,8.60
2018-11-01T05:52:51.887Z,8.30
2018-11-01T05:55:21.949Z,8.00
2018-11-01T05:57:51.888Z,8.30
2018-11-01T06:00:23.320Z,8.00
2018-11-01T06:02:52.498Z,7.80
2018-11-01T06:05:22.167Z,7.50
2018-11-01T06:07:54.635Z,7.30
2018-11-01T06:10:23.847Z,7.30
2018-11-01T06:12:52.978Z,7.30
2018-11-01T06:15:22.507Z,7.20
2018-11-01T06:17:52.260Z,7.40
2018-11-01T06:20:22.346Z,7.50
2018-11-01T06:22:53.349Z,7.70
2018-11-01T06:25:22.455Z,7.70
2018-11-01T06:27:52.483Z,7.80
2018-11-01T06:30:22.420Z,7.90
2018-11-01T06:32:52.488Z,8.00
2018-11-01T06:35:35.163Z,8.00
2018-11-01T06:38:04.290Z,8.10
2018-11-01T06:40:33.475Z,8.10
2018-11-01T06:43:02.722Z,8.10
2018-11-01T06:45:31.980Z,8.20
2018-11-01T06:48:01.121Z,8.40
2018-11-01T06:50:30.238Z,8.40
2018-11-01T06:52:59.441Z,8.50
2018-11-01T06:55:28.602Z,8.70
2018-11-01T06:57:57.798Z,8.90
2018-11-01T07:00:27.430Z,9.10
2018-11-01T07:02:56.702Z,9.50
2018-11-01T07:05:25.928Z,9.90
2018-11-01T07:07:55.157Z,10.00
2018-11-01T07:10:24.309Z,10.20
2018-11-01T07:12:53.440Z,10.20
2018-11-01T07:15:22.867Z,10.50
2018-11-01T07:17:52.991Z,10.50
2018-11-01T07:20:22.930Z,10.60
2018-11-01T07:22:53.110Z,11.00
2018-11-01T07:25:23.129Z,11.00
2018-11-01T07:27:53.027Z,11.00
2018-11-01T07:30:23.118Z,10.80
2018-11-01T07:32:53.028Z,10.70
2018-11-01T07:35:23.313Z,10.70
2018-11-01T07:37:53.179Z,10.70
2018-11-01T07:40:23.351Z,10.70
2018-11-01T07:42:53.299Z,10.60
2018-11-01T07:45:23.215Z,10.60
2018-11-01T07:47:53.310Z,10.60
2018-11-01T07:50:23.419Z,10.60
2018-11-01T07:52:53.467Z,10.60
2018-11-01T07:55:23.437Z,10.50
2018-11-01T07:57:53.467Z,10.50
2018-11-01T08:00:23.558Z,10.50
2018-11-01T08:02:53.830Z,10.60
2018-11-01T08:05:23.574Z,10.40
2018-11-01T08:07:53.530Z,10.30
2018-11-01T08:10:23.650Z,10.20
2018-11-01T08:12:53.638Z,10.10
2018-11-01T08:15:23.680Z,10.30
2018-11-01T08:17:53.691Z,10.20
2018-11-01T08:20:23.796Z,10.20
2018-11-01T08:22:53.658Z,10.30
2018-11-01T08:25:25.386Z,10.30
2018-11-01T08:27:54.528Z,10.30
2018-11-01T08:30:23.827Z,10.50
2018-11-01T08:32:53.957Z,10.30
2018-11-01T08:35:23.977Z,10.30
2018-11-01T08:37:53.938Z,10.30
2018-11-01T08:40:23.920Z,10.30
2018-11-01T08:42:54.874Z,10.30
2018-11-01T08:45:24.058Z,10.30
2018-11-01T08:47:54.024Z,10.40
2018-11-01T08:50:24.024Z,10.40
2018-11-01T08:52:54.138Z,10.20
2018-11-01T08:55:24.127Z,10.30
2018-11-01T08:57:54.541Z,10.20
2018-11-01T09:00:24.247Z,10.20
2018-11-01T09:02:54.198Z,10.20
2018-11-01T09:05:24.402Z,10.10
2018-11-01T09:07:54.343Z,10.20
2018-11-01T09:10:24.555Z,10.20
2018-11-01T09:12:54.499Z,10.00
2018-11-01T09:15:24.464Z,10.10
2018-11-01T09:17:54.537Z,10.00
2018-11-01T09:20:25.420Z,10.10
2018-11-01T09:22:54.647Z,10.20
2018-11-01T09:25:24.491Z,10.20
2018-11-01T09:27:54.563Z,10.30
2018-11-01T09:30:24.730Z,10.50
2018-11-01T09:32:54.582Z,10.30
2018-11-01T09:35:24.803Z,10.20
2018-11-01T09:37:54.786Z,10.20
2018-11-01T09:40:24.791Z,10.10
2018-11-01T09:42:56.215Z,10.10
2018-11-01T09:45:25.470Z,10.00
2018-11-01T09:47:54.866Z,9.90
2018-11-01T09:50:25.007Z,10.00
2018-11-01T09:52:55.036Z,10.20
2018-11-01T09:55:25.022Z,10.10
2018-11-01T09:57:54.925Z,10.20
2018-11-01T10:00:25.044Z,10.10
2018-11-01T10:02:55.162Z,10.10
2018-11-01T10:05:25.938Z,10.50
2018-11-01T10:07:55.134Z,10.40
2018-11-01T10:10:25.156Z,10.20
2018-11-01T10:12:55.106Z,10.20
2018-11-01T10:15:25.250Z,10.20
2018-11-01T10:17:55.623Z,10.10
2018-11-01T10:20:25.319Z,10.10
2018-11-01T10:22:55.265Z,10.10
2018-11-01T10:25:25.381Z,10.10
2018-11-01T10:27:56.955Z,10.10
2018-11-01T10:30:27.286Z,10.40
2018-11-01T10:32:56.540Z,10.40
2018-11-01T10:35:25.627Z,10.50
2018-11-01T10:37:55.454Z,10.60
2018-11-01T10:40:25.532Z,10.70
2018-11-01T10:42:55.400Z,10.60
2018-11-01T10:45:25.527Z,10.80
2018-11-01T10:47:55.482Z,10.90
2018-11-01T10:50:25.495Z,10.90
2018-11-01T10:52:55.624Z,10.90
2018-11-01T10:55:25.749Z,11.10
2018-11-01T10:57:55.686Z,11.30
2018-11-01T11:00:31.294Z,11.30
2018-11-01T11:03:00.308Z,11.40
2018-11-01T11:05:29.460Z,11.50
2018-11-01T11:07:58.680Z,11.50
2018-11-01T11:10:27.836Z,11.50
2018-11-01T11:12:56.906Z,11.40
2018-11-01T11:15:28.244Z,11.40
2018-11-01T11:17:57.407Z,11.50
2018-11-01T11:20:27.587Z,11.50
2018-11-01T11:22:56.590Z,11.50
2018-11-01T11:25:26.082Z,11.60
2018-11-01T11:27:55.971Z,11.60
2018-11-01T11:30:26.116Z,11.70
2018-11-01T11:32:56.138Z,11.70
2018-11-01T11:35:27.255Z,11.80
2018-11-01T11:37:57.375Z,11.80
2018-11-01T11:40:27.469Z,12.00
2018-11-01T11:42:56.606Z,11.90
2018-11-01T11:45:27.370Z,12.20
2018-11-01T11:47:56.547Z,12.00
2018-11-01T11:50:27.454Z,12.10
2018-11-01T11:52:56.651Z,12.00
2018-11-01T11:55:26.381Z,12.10
2018-11-01T11:57:56.442Z,12.20
2018-11-01T12:00:26.494Z,12.10
2018-11-01T12:02:56.555Z,12.20
2018-11-01T12:05:26.824Z,12.20
2018-11-01T12:07:56.571Z,12.30
2018-11-01T12:10:26.686Z,12.40
2018-11-01T12:12:56.718Z,12.40
2018-11-01T12:15:26.673Z,12.40
2018-11-01T12:17:56.645Z,12.80
2018-11-01T12:20:26.897Z,12.70
2018-11-01T12:22:56.878Z,12.50
2018-11-01T12:25:26.901Z,12.60
2018-11-01T12:27:56.843Z,12.60
2018-11-01T12:30:28.145Z,12.50
2018-11-01T12:32:57.199Z,12.80
2018-11-01T12:35:27.106Z,12.90
2018-11-01T12:37:57.114Z,12.80
2018-11-01T12:40:28.107Z,12.60
2018-11-01T12:42:57.289Z,12.80
2018-11-01T12:45:28.246Z,12.90
2018-11-01T12:47:57.513Z,12.90
2018-11-01T12:50:28.404Z,12.90
2018-11-01T12:52:57.548Z,12.70
2018-11-01T12:55:28.383Z,12.50
2018-11-01T12:57:57.554Z,12.60
2018-11-01T13:00:28.506Z,12.60
2018-11-01T13:02:57.739Z,12.70
2018-11-01T13:05:29.730Z,12.70
2018-11-01T13:07:58.902Z,12.70
2018-11-01T13:10:28.600Z,12.70
2018-11-01T13:12:57.734Z,12.70
2018-11-01T13:15:28.657Z,12.80
2018-11-01T13:17:57.911Z,12.80
2018-11-01T13:20:28.392Z,12.90
2018-11-01T13:22:57.709Z,12.80
2018-11-01T13:25:28.617Z,12.80
2018-11-01T13:27:58.859Z,12.80
2018-11-01T13:30:28.635Z,12.80
2018-11-01T13:32:57.844Z,12.80
2018-11-01T13:35:27.333Z,12.80
2018-11-01T13:37:57.590Z,12.80
2018-11-01T13:40:28.928Z,12.80
2018-11-01T13:42:57.771Z,12.80
2018-11-01T13:45:28.493Z,12.80
2018-11-01T13:47:57.890Z,12.80
2018-11-01T13:50:27.255Z,12.90
2018-11-01T13:52:57.561Z,13.30
2018-11-01T13:55:28.578Z,13.00
2018-11-01T13:57:57.894Z,12.90
2018-11-01T14:00:27.286Z,13.00
2018-11-01T14:02:56.419Z,12.90
2018-11-01T14:05:25.629Z,13.00
2018-11-01T14:07:54.720Z,13.30
2018-11-01T14:10:23.944Z,14.00
2018-11-01T14:12:53.123Z,14.60
2018-11-01T14:15:22.726Z,14.80
2018-11-01T14:17:51.475Z,14.80
2018-11-01T14:20:20.693Z,14.70
2018-11-01T14:22:49.922Z,14.70
2018-11-01T14:25:19.101Z,14.60
2018-11-01T14:27:48.287Z,14.70
2018-11-01T14:30:17.586Z,14.60
2018-11-01T14:32:46.778Z,14.60
2018-11-01T14:35:15.901Z,14.40
2018-11-01T14:37:45.186Z,14.90
2018-11-01T14:40:14.906Z,14.80
2018-11-01T14:42:44.124Z,14.80
2018-11-01T14:45:13.251Z,14.60
2018-11-01T14:47:42.617Z,14.60
2018-11-01T14:50:12.126Z,14.50
2018-11-01T14:52:42.229Z,14.60
2018-11-01T14:55:11.753Z,14.60
2018-11-01T14:57:42.030Z,14.60
2018-11-01T15:00:10.115Z,14.60
2018-11-01T15:02:39.221Z,14.50
2018-11-01T15:05:08.870Z,14.40
2018-11-01T15:07:38.034Z,14.50
2018-11-01T15:10:10.070Z,14.40
2018-11-01T15:12:39.464Z,14.20
2018-11-01T15:15:09.414Z,14.20
2018-11-01T15:17:39.183Z,13.90
2018-11-01T15:20:08.691Z,13.80
2018-11-01T15:22:37.859Z,13.90
2018-11-01T15:25:08.217Z,14.00
2018-11-01T15:27:37.629Z,13.80
2018-11-01T15:30:11.126Z,13.80
2018-11-01T15:32:40.259Z,13.70
2018-11-01T15:35:09.370Z,13.80
2018-11-01T15:37:38.634Z,13.90
2018-11-01T15:40:11.179Z,13.80
2018-11-01T15:42:41.028Z,13.80
2018-11-01T15:45:11.159Z,13.70
2018-11-01T15:47:41.062Z,13.70
2018-11-01T15:50:11.298Z,13.50
2018-11-01T15:52:40.465Z,13.10
2018-11-01T15:55:10.215Z,12.80
2018-11-01T15:57:39.459Z,12.60
2018-11-01T16:00:11.222Z,12.40
2018-11-01T16:02:41.647Z,12.20
2018-11-01T16:05:11.721Z,12.10
2018-11-01T16:07:41.693Z,11.90
2018-11-01T16:10:11.658Z,11.90
2018-11-01T16:12:40.905Z,11.80
2018-11-01T16:15:14.470Z,11.70
2018-11-01T16:17:43.761Z,11.60
2018-11-01T16:20:13.006Z,11.60
2018-11-01T16:22:42.291Z,11.50
2018-11-01T16:25:11.465Z,11.30
2018-11-01T16:27:40.674Z,11.30
2018-11-01T16:30:09.740Z,11.20
2018-11-01T16:32:39.470Z,11.20
2018-11-01T16:35:09.111Z,11.20
2018-11-01T16:37:38.363Z,11.20
2018-11-01T16:40:09.575Z,11.10
2018-11-01T16:42:38.781Z,11.00
2018-11-01T16:45:10.297Z,11.00
2018-11-01T16:47:39.569Z,11.00
2018-11-01T16:50:09.233Z,11.00
2018-11-01T16:52:39.163Z,11.00
2018-11-01T16:55:08.258Z,10.90
2018-11-01T16:57:37.342Z,10.80
2018-11-01T17:00:09.507Z,10.80
2018-11-01T17:02:39.143Z,10.80
2018-11-01T17:05:09.063Z,10.70
2018-11-01T17:07:38.328Z,10.60
2018-11-01T17:10:09.222Z,10.60
2018-11-01T17:12:38.819Z,10.60
2018-11-01T17:15:10.659Z,10.60
2018-11-01T17:17:39.741Z,10.50
2018-11-01T17:20:08.926Z,10.50
2018-11-01T17:22:38.071Z,10.50
2018-11-01T17:25:07.330Z,10.40
2018-11-01T17:27:36.331Z,10.40
2018-11-01T17:30:07.346Z,10.40
2018-11-01T17:32:41.824Z,10.30
2018-11-01T17:35:11.027Z,10.30
2018-11-01T17:37:40.113Z,10.30
2018-11-01T17:40:09.761Z,10.30
2018-11-01T17:42:43.355Z,10.30
2018-11-01T17:45:12.561Z,10.30
2018-11-01T17:47:42.182Z,10.30
2018-11-01T17:50:13.218Z,10.40
2018-11-01T17:52:42.927Z,10.60
2018-11-01T17:55:12.227Z,10.60
2018-11-01T17:57:41.750Z,10.60
2018-11-01T18:00:12.704Z,10.50
2018-11-01T18:02:42.442Z,10.50
2018-11-01T18:05:12.223Z,10.60
2018-11-01T18:07:41.703Z,10.50
2018-11-01T18:10:12.171Z,10.60
2018-11-01T18:12:41.563Z,10.70
2018-11-01T18:15:10.710Z,10.70
2018-11-01T18:17:39.894Z,10.70
2018-11-01T18:20:10.699Z,10.70
2018-11-01T18:22:41.198Z,10.70
2018-11-01T18:25:12.311Z,10.70
2018-11-01T18:27:41.887Z,10.70
2018-11-01T18:30:13.727Z,10.60
2018-11-01T18:32:43.282Z,10.60
2018-11-01T18:35:12.474Z,10.50
2018-11-01T18:37:42.372Z,10.50
2018-11-01T18:40:17.840Z,10.50
2018-11-01T18:42:46.975Z,10.40
2018-11-01T18:45:16.562Z,10.40
2018-11-01T18:47:45.813Z,10.30
2018-11-01T18:50:16.080Z,10.30
2018-11-01T18:52:45.342Z,10.10
2018-11-01T18:55:14.528Z,9.90
2018-11-01T18:57:43.689Z,9.90
2018-11-01T19:00:17.085Z,9.80
2018-11-01T19:02:46.374Z,9.70
2018-11-01T19:05:15.789Z,9.70
2018-11-01T19:07:45.387Z,9.70
2018-11-01T19:10:15.015Z,9.70
2018-11-01T19:12:46.672Z,9.60
2018-11-01T19:15:16.334Z,9.50
2018-11-01T19:17:45.430Z,9.30
2018-11-01T19:20:14.581Z,9.30
2018-11-01T19:22:43.798Z,9.10
2018-11-01T19:25:13.182Z,9.10
2018-11-01T19:27:42.294Z,9.00
2018-11-01T19:30:12.527Z,8.80
2018-11-01T19:32:42.019Z,9.00
2018-11-01T19:35:12.246Z,8.90
2018-11-01T19:37:42.455Z,8.70
2018-11-01T19:40:14.322Z,9.00
2018-11-01T19:42:43.938Z,9.50
2018-11-01T19:45:13.029Z,9.60
2018-11-01T19:47:42.218Z,9.30
2018-11-01T19:50:13.085Z,9.30
2018-11-01T19:52:42.341Z,9.60
2018-11-01T19:55:11.590Z,9.60
2018-11-01T19:57:41.118Z,9.20
2018-11-01T20:00:14.239Z,9.20
2018-11-01T20:02:43.824Z,9.30
2018-11-01T20:05:12.947Z,9.20
2018-11-01T20:07:42.066Z,9.10
2018-11-01T20:10:12.619Z,8.90
2018-11-01T20:12:41.829Z,8.70
2018-11-01T20:15:10.909Z,8.70
2018-11-01T20:17:39.987Z,8.60
2018-11-01T20:20:11.157Z,8.60
2018-11-01T20:22:40.681Z,8.40
2018-11-01T20:25:09.859Z,8.50
2018-11-01T20:27:39.105Z,8.50
2018-11-01T20:30:11.421Z,8.50
2018-11-01T20:32:41.185Z,8.30
2018-11-01T20:35:11.819Z,8.40
2018-11-01T20:37:41.445Z,8.40
2018-11-01T20:40:10.750Z,8.40
2018-11-01T20:42:40.544Z,8.40
2018-11-01T20:45:10.885Z,8.40
2018-11-01T20:47:39.969Z,8.30
2018-11-01T20:50:10.491Z,8.40
2018-11-01T20:52:39.590Z,8.40
2018-11-01T20:55:08.766Z,8.40
2018-11-01T20:57:38.141Z,8.40
2018-11-01T21:00:10.241Z,8.40
2018-11-01T21:02:39.495Z,8.50
2018-11-01T21:05:09.969Z,8.60
2018-11-01T21:07:39.051Z,8.60
2018-11-01T21:10:09.455Z,8.50
2018-11-01T21:12:39.262Z,8.60
2018-11-01T21:15:10.831Z,8.60
2018-11-01T21:17:40.114Z,8.70
2018-11-01T21:20:09.523Z,8.60
2018-11-01T21:22:38.609Z,8.50
2018-11-01T21:25:08.656Z,8.40
2018-11-01T21:27:37.952Z,8.50
2018-11-01T21:30:08.002Z,8.40
2018-11-01T21:32:37.167Z,8.20
2018-11-01T21:35:07.232Z,8.10
2018-11-01T21:37:36.342Z,8.40
2018-11-01T21:40:07.735Z,8.60
2018-11-01T21:42:37.814Z,8.60
2018-11-01T21:45:09.842Z,8.70
2018-11-01T21:47:38.994Z,8.60
2018-11-01T21:50:08.108Z,8.40
2018-11-01T21:52:37.290Z,8.30
2018-11-01T21:55:07.077Z,8.20
2018-11-01T21:57:36.287Z,8.10
2018-11-01T22:00:07.130Z,8.10
2018-11-01T22:02:36.978Z,8.20
2018-11-01T22:05:07.463Z,8.20
2018-11-01T22:07:36.860Z,8.20
2018-11-01T22:10:06.902Z,8.20
2018-11-01T22:12:36.836Z,8.30
2018-11-01T22:15:08.560Z,8.30
2018-11-01T22:17:37.723Z,8.20
2018-11-01T22:20:08.448Z,8.20
2018-11-01T22:22:37.798Z,8.20
2018-11-01T22:25:07.719Z,8.20
2018-11-01T22:27:36.897Z,8.30
2018-11-01T22:30:08.259Z,8.40
2018-11-01T22:32:37.430Z,8.50
2018-11-01T22:35:07.102Z,8.80
2018-11-01T22:37:36.489Z,8.70
2018-11-01T22:40:05.970Z,8.70
2018-11-01T22:42:35.162Z,8.60
2018-11-01T22:45:05.006Z,8.60
2018-11-01T22:47:34.217Z,8.60
2018-11-01T22:50:03.745Z,8.50
2018-11-01T22:52:33.614Z,8.50
2018-11-01T22:55:03.655Z,8.50
2018-11-01T22:57:33.792Z,8.50
2018-11-01T23:00:03.808Z,8.60
2018-11-01T23:02:33.976Z,8.70
2018-11-01T23:05:03.908Z,8.60
2018-11-01T23:07:33.897Z,8.60
2018-11-01T23:10:04.088Z,8.50
2018-11-01T23:12:33.873Z,8.40
2018-11-01T23:15:03.921Z,8.10
2018-11-01T23:17:34.056Z,8.40
2018-11-01T23:20:03.946Z,8.70
2018-11-01T23:22:34.126Z,8.50
2018-11-01T23:25:04.099Z,8.40
2018-11-01T23:27:34.234Z,8.50
2018-11-01T23:30:04.350Z,8.60
2018-11-01T23:32:34.325Z,8.50
2018-11-01T23:35:04.546Z,8.40
2018-11-01T23:37:39.520Z,8.20
2018-11-01T23:40:13.929Z,8.20
2018-11-01T23:42:48.322Z,8.20
2018-11-01T23:45:22.621Z,8.20
2018-11-01T23:47:57.570Z,8.20
2018-11-01T23:50:32.394Z,8.20
2018-11-01T23:53:06.069Z,8.00
2018-11-01T23:55:35.225Z,8.10
2018-11-01T23:58:04.604Z,8.20
